North Attleboro, MA (02763)

9:47 PM EDT on July 23, 2016 (GMT -0400)
Smith Street | | Change Station

Elev 195 ft 41.98 °N, 71.32 °W | Updated 8 seconds ago

Clear
Clear
75.0 °F
Feels Like 78 °F
N
1.1
Wind Variable Wind from SSE
Gusts 2.5 mph

Today
High -- | Low -- °F
--% Chance of Precip.
Yesterday
High -- | Low -- °F
Precip. -- in
Pressure 29.80 in
Visibility 10.0 miles
Clouds Clear
Heat Index 78 °F
Dew Point 58 °F
Humidity 56%
Rainfall 0.00 in
Snow Depth Not available.
5:30 AM 8:12 PM
Waning Gibbous, 81% visible
METAR KTAN 240052Z AUTO VRB04KT 10SM CLR 24/14 A2980 RMK AO2 PK WND 01036/0008 LTG DSNT E-S TSB29E44 SLP091 T02390139
Pressure 29.80 in
Visibility 10.0 miles
Clouds Clear
Heat Index 78 °F
Dew Point 58 °F
Humidity 56%
Rainfall 0.00 in
Snow Depth Not available.
5:30 AM 8:12 PM
Waning Gibbous, 81% visible
METAR KTAN 240052Z AUTO VRB04KT 10SM CLR 24/14 A2980 RMK AO2 PK WND 01036/0008 LTG DSNT E-S TSB29E44 SLP091 T02390139

10-Day Weather Forecast

Almanac

Astronomy

Jul. 23, 2016 Rise Set
Actual Time
Civil Twilight
Nautical Twilight
Astronomical Twilight
Moon
Length of Visible Light
Length of Day
Tomorrow will be .
, % of the Moon is Illuminated

Today's Extremes

State Highs State Lows

Community

WunderPhotos

Upload Photos

1,926,996 photos uploaded!

WunderBlog® & News

Nearby

Air Quality

  Air Quality AQ Index Pollutant
Not available.

Snow Depth

Station Depth Elevation

Earthquake Activity

City Distance Mag. Time & Date
Minimum magnitude displayed is 2.5.

Coastal Water Temperatures

Place Temperature

Stations

Nearby Weather Stations

Station Location Temp. Windchill Dew Point Humidity Wind Precip. Elev Updated Type
                   

Watches & Warnings

There are currently no watches in effect.